Baywood Park, California
Current Conditions -  °F | °C
As of 3:56 PM on Wednesday 22 Oct 2014 (Local Time) from KSBP Reporting Station
Clear Clear  
Wind Chill: 78°   Ceiling: Unl
Heat Index: 78°   Visibility: 10mi
Dew Point: 44°   Wind: 20mph
Humidity: 30%   Direction: 310°NW
Pressure: 29.92"   Gusts: NA
Location:  35.2818°N, 120.831°W
Report Text: KSBP 222256Z 31017KT 10SM CLR 26/07 A2992 RMK AO2 SLP128 T02560067
Loading
Personal Weather Stations






























Interactive Weather Map
Tropical Storm Tracking
New forecast layout! Learn more

10-Day Weather Forecast

Advertisements
Track Severe Weather on mobile